DIRECCIÓN GENERAL DE AERONÁUTICA CIVIL
DIRECCIÓN METEOROLÓGICA DE CHILE
INFORMACIÓN METAR Y TAF

FIR PUERTO MONTT

Estación: SCQP
METAR SCQP 292300Z 24011KT 9999 FEW040 15/08 Q1021=

TAF SCQP 292225Z 3000/3024 22010KT 9999 SCT045 TN06/3010Z TX18/3019Z BECMG 3005/3007 VRB02KT TEMPO 3008/3012 6000 OVC006 BECMG 3013/3015 20010KT SCT020 BECMG 3019/3020 CAVOK=

Estación: SCVD
METAR SCVD 292300Z AUTO 23007KT CAVOK 16/09 Q1021=

TAF SCVD 291625Z 2918/3006 23007KT 9999 BKN030 TX19/2918Z TN08/3006Z=

Estación: SCJO
METAR SCJO 292200Z 20006KT 9999 BKN040 16/07 Q1022=

TAF SCJO 291625Z 2918/3006 22008KT 9999 SCT025 SCT035 TX18/2918Z TN07/3006Z=

Estación: SCTE
METAR SCTE 292300Z VRB02KT 9999 OVC025 12/11 Q1023 RESHRA NOSIG=

TAF SCTE 292225Z 2918/3018 16006KT 9999 BKN030 TN06/3010Z TX15/3019Z PROB30 TEMPO 3000/3005 7000 -SHRA BECMG 3005/3007 VRB02KT TEMPO 3008/3012 00000KT 2000 BR OVC005 BECMG 3013/3015 27005KT SCT037=

Estación: SCPQ
METAR SCPQ 292300Z AUTO 23004KT 190V260 CAVOK 12/07 Q1023=

TAF SCPQ 291625Z 2918/3006 21006KT 9999 SCT035 TX15/2918Z TN10/2924Z=

Estación: SCON
METAR SCON 292300Z AUTO 25004KT 220V280 9999 12/09 Q1023=

TAF SCON 281051Z 2812/2824 36010KT 9999 SCT010 BKN023 OVC060 TN14/ 2812Z TX16/2818Z TEMPO 2812/2813 5000 -SHRA BECMG 2813/2815 36015KT 5000 RA BKN010 OVC025 BECMG 2818/2820 27010KT 9999 NSW BKN020 BKN050=

Estación: SCTN
METAR SCTN 292300Z AUTO 24003KT 190V330 9999 FEW013 OVC033 12/10 Q1023=

TAF SCTN 291625Z 2918/3006 24007KT 9999 BKN020 TX15/2918Z TN08/3006Z TEMPO 2918/2922 5000 -SHRA BECMG 2920/2922 19008KT=

Estación: SCFT
METAR SCFT 292300Z AUTO 25008KT 200V270 9999 13/04 Q1020=

NIL=

Estación: SCAP
METAR SCAP 292300Z AUTO 23010G21KT 180V260 //// // NSC 13/04 Q1025=

NIL=

Estación: SCMK
METAR SCMK 281600Z 02023KT 2000 DZ OVC004 13/12 Q1013 REDZ=

TAF SCMK 291625Z 2918/3006 24015KT 9999 BKN020 TX15/2918Z TN10/3006Z=

Estación: SCAS
METAR SCAS 271900Z 24007KT 9999 OVC043 16/07 Q1016=

NIL=

Estación: SCCY
METAR SCCY 292300Z 00000KT 9999 BKN020 12/05 Q1017=

TAF SCCY 291625Z 2918/3006 24008KT 9999 SCT040 TX16/2918Z TN07/3006Z TEMPO 2918/2923 7000 -SHRA BKN030=

Estación: SCBA
METAR SCBA 292300Z AUTO 31021KT CAVOK 09/04 Q1015=

TAF SCBA 292235Z 3000/3024 30020G35KT CAVOK TN04/3010Z TX14/3019Z BECMG 3001/3003 29020KT BKN040 BECMG 3013/3015 30020G45KT SCT060 BECMG 3020/3022 CAVOK=

Estación: SCCC
METAR SCCC 271900Z 29018KT 9999 FEW043 BKN110 21/03 Q1011=

NIL=

Estación: SCHR
METAR SCHR 292000Z AUTO 21007KT 160V280 CAVOK 16/05 Q1011=

TAF SCHR 271057Z 2712/2800 35010KT 9999 SCT040 TX18/2718Z TN06/2712Z TEMPO 2712/2716 VRB03KT CAVOK=


Volver